createdAt,value
2022-10-06T00:01:12.059Z,7.45
2022-10-06T00:09:17.346Z,6.85
2022-10-06T00:17:25.282Z,7.28
2022-10-06T00:25:31.089Z,6.68
2022-10-06T00:33:39.459Z,6.28
2022-10-06T00:41:44.907Z,5.97
2022-10-06T00:49:53.630Z,5.28
2022-10-06T00:57:59.490Z,4.63
2022-10-06T01:06:08.135Z,4.40
2022-10-06T01:14:13.959Z,4.45
2022-10-06T01:22:32.588Z,4.70
2022-10-06T01:30:42.980Z,5.40
2022-10-06T01:38:51.116Z,5.03
2022-10-06T01:46:56.756Z,4.97
2022-10-06T01:55:05.045Z,5.03
2022-10-06T02:03:11.107Z,4.40
2022-10-06T02:11:20.154Z,4.93
2022-10-06T02:19:27.577Z,4.97
2022-10-06T02:27:35.782Z,4.85
2022-10-06T02:35:43.029Z,4.60
2022-10-06T02:43:55.354Z,4.88
2022-10-06T02:52:01.535Z,5.07
2022-10-06T03:00:11.554Z,4.43
2022-10-06T03:08:16.973Z,4.57
2022-10-06T03:16:26.723Z,4.60
2022-10-06T03:24:32.234Z,4.57
2022-10-06T03:32:40.934Z,4.35
2022-10-06T03:40:48.173Z,4.57
2022-10-06T03:48:57.365Z,5.28
2022-10-06T03:57:04.499Z,5.10
2022-10-06T04:05:13.371Z,4.30
2022-10-06T04:13:19.979Z,4.20
2022-10-06T04:21:29.361Z,4.32
2022-10-06T04:29:35.320Z,4.15
2022-10-06T04:37:43.676Z,5.18
2022-10-06T04:45:49.598Z,4.15
2022-10-06T04:53:57.749Z,4.85
2022-10-06T05:02:07.125Z,4.93
2022-10-06T05:10:15.411Z,5.93
2022-10-06T05:18:21.472Z,5.00
2022-10-06T05:26:31.795Z,5.38
2022-10-06T05:34:38.674Z,5.43
2022-10-06T05:42:47.450Z,5.40
2022-10-06T05:51:00.244Z,4.70
2022-10-06T05:59:09.281Z,4.80
2022-10-06T06:07:15.300Z,4.32
2022-10-06T06:15:37.609Z,3.92
2022-10-06T06:23:45.161Z,4.60
2022-10-06T06:31:53.631Z,4.97
2022-10-06T06:39:59.162Z,6.30
2022-10-06T06:48:07.836Z,5.50
2022-10-06T06:56:13.388Z,5.30
2022-10-06T07:04:22.079Z,4.63
2022-10-06T07:12:28.096Z,4.78
2022-10-06T07:20:51.064Z,5.60
2022-10-06T07:29:00.149Z,3.75
2022-10-06T07:37:08.461Z,3.47
2022-10-06T07:45:26.581Z,3.47
2022-10-06T07:53:35.713Z,4.57
2022-10-06T08:01:47.597Z,3.80
2022-10-06T08:09:55.514Z,3.75
2022-10-06T08:18:08.742Z,3.17
2022-10-06T08:26:25.156Z,3.58
2022-10-06T08:34:30.501Z,3.10
2022-10-06T08:42:43.753Z,3.95
2022-10-06T08:50:57.484Z,4.00
2022-10-06T08:59:06.956Z,3.35
2022-10-06T09:07:16.891Z,3.17
2022-10-06T09:15:33.944Z,2.92
2022-10-06T09:23:52.274Z,3.22
2022-10-06T09:32:03.073Z,3.00
2022-10-06T09:40:39.749Z,2.43
2022-10-06T09:48:47.671Z,3.40
2022-10-06T09:56:54.237Z,2.58
2022-10-06T10:05:02.588Z,3.03
2022-10-06T10:13:21.746Z,3.17
2022-10-06T10:21:33.949Z,2.90
2022-10-06T10:30:02.126Z,1.90
2022-10-06T10:46:27.398Z,6.82
2022-10-06T10:54:42.262Z,2.42
2022-10-06T11:02:47.579Z,1.90
2022-10-06T11:11:00.510Z,2.42
2022-10-06T11:19:18.427Z,2.35
2022-10-06T11:27:37.944Z,3.17
2022-10-06T11:35:47.356Z,3.38
2022-10-06T11:44:00.774Z,2.80
2022-10-06T11:52:35.760Z,2.33
2022-10-06T12:00:55.405Z,2.92
2022-10-06T12:09:01.216Z,3.75
2022-10-06T12:17:19.815Z,3.25
2022-10-06T12:25:31.109Z,2.67
2022-10-06T12:33:43.879Z,3.30
2022-10-06T12:42:01.651Z,2.83
2022-10-06T12:50:18.583Z,2.60
2022-10-06T12:58:32.591Z,2.42
2022-10-06T13:06:40.730Z,2.80
2022-10-06T13:14:46.082Z,2.05
2022-10-06T13:23:02.833Z,2.90
2022-10-06T13:31:20.161Z,3.00
2022-10-06T13:39:31.936Z,1.80
2022-10-06T13:47:38.046Z,2.00
2022-10-06T13:55:52.540Z,1.90
2022-10-06T14:04:16.415Z,1.70
2022-10-06T14:12:24.426Z,15.23
2022-10-06T14:20:46.087Z,3.30
2022-10-06T14:28:55.674Z,2.80
2022-10-06T14:37:00.987Z,2.63
2022-10-06T14:45:10.072Z,2.53
2022-10-06T14:53:17.616Z,2.90
2022-10-06T15:01:28.457Z,3.25
2022-10-06T15:09:33.831Z,5.95
2022-10-06T15:17:42.468Z,4.75
2022-10-06T15:26:07.530Z,4.00
2022-10-06T15:34:16.871Z,4.40
2022-10-06T15:42:24.371Z,4.57
2022-10-06T15:50:32.238Z,5.60
2022-10-06T15:58:37.591Z,5.47
2022-10-06T16:06:55.510Z,6.43
2022-10-06T16:15:00.868Z,8.93
2022-10-06T16:23:08.684Z,10.32
2022-10-06T16:31:14.049Z,13.27
2022-10-06T16:39:23.406Z,12.93
2022-10-06T16:47:28.790Z,13.85
2022-10-06T16:55:36.676Z,14.45
2022-10-06T17:03:43.011Z,18.38
2022-10-06T17:11:52.365Z,16.90
2022-10-06T17:19:57.634Z,17.63
2022-10-06T17:28:05.552Z,18.35
2022-10-06T17:36:13.660Z,18.23
2022-10-06T17:44:26.172Z,18.35
2022-10-06T17:52:31.836Z,19.70
2022-10-06T18:00:39.752Z,18.67
2022-10-06T18:08:46.378Z,17.20
2022-10-06T18:16:57.892Z,17.30
2022-10-06T18:25:03.383Z,16.95
2022-10-06T18:41:38.054Z,16.27
2022-10-06T18:49:46.589Z,16.83
2022-10-06T18:57:51.879Z,19.85
2022-10-06T19:06:00.303Z,18.85
2022-10-06T19:14:06.457Z,22.15
2022-10-06T19:22:16.307Z,22.58
2022-10-06T19:30:22.354Z,20.67
2022-10-06T19:38:31.223Z,19.23
2022-10-06T19:46:37.611Z,18.23
2022-10-06T19:54:47.051Z,18.55
2022-10-06T20:02:52.619Z,21.73
2022-10-06T20:11:07.679Z,19.58
2022-10-06T20:19:14.335Z,23.55
2022-10-06T20:27:22.284Z,21.73
2022-10-06T20:35:27.620Z,20.90
2022-10-06T20:43:35.997Z,19.00
2022-10-06T20:51:46.690Z,19.52
2022-10-06T20:59:54.603Z,18.90
2022-10-06T21:08:00.229Z,15.98
2022-10-06T21:16:09.114Z,15.57
2022-10-06T21:24:14.599Z,14.52
2022-10-06T21:32:22.521Z,14.07
2022-10-06T21:40:27.828Z,11.18
2022-10-06T21:48:35.722Z,10.40
2022-10-06T21:56:41.918Z,9.65
2022-10-06T22:04:49.831Z,8.70
2022-10-06T22:12:55.186Z,8.40
2022-10-06T22:21:03.461Z,8.52
2022-10-06T22:29:10.544Z,8.95
2022-10-06T22:37:18.412Z,8.32
2022-10-06T22:45:23.709Z,8.15
2022-10-06T22:53:32.432Z,9.13
2022-10-06T23:01:39.334Z,10.15
2022-10-06T23:09:47.202Z,11.50
2022-10-06T23:17:52.608Z,12.07
2022-10-06T23:26:05.071Z,10.95
2022-10-06T23:34:10.526Z,12.43
2022-10-06T23:42:18.438Z,11.43
2022-10-06T23:50:23.837Z,9.65
2022-10-06T23:58:32.214Z,10.07
